sensor_id;sensor_type;location;lat;lon;timestamp;pressure;altitude;pressure_sealevel;temperature;humidity
6423;BME280;3244;42.708;23.288;2023-02-04T00:01:57;94860.81;;;3.04;78.99
6423;BME280;3244;42.708;23.288;2023-02-04T00:04:24;94857.50;;;3.02;78.96
6423;BME280;3244;42.708;23.288;2023-02-04T00:06:50;94848.41;;;2.87;80.04
6423;BME280;3244;42.708;23.288;2023-02-04T00:09:17;94842.38;;;3.08;79.47
6423;BME280;3244;42.708;23.288;2023-02-04T00:11:44;94832.34;;;3.06;79.49
6423;BME280;3244;42.708;23.288;2023-02-04T00:14:10;94829.03;;;3.03;79.64
6423;BME280;3244;42.708;23.288;2023-02-04T00:16:37;94822.41;;;2.96;79.65
6423;BME280;3244;42.708;23.288;2023-02-04T00:19:05;94823.28;;;2.92;79.85
6423;BME280;3244;42.708;23.288;2023-02-04T00:21:32;94837.56;;;2.82;81.06
6423;BME280;3244;42.708;23.288;2023-02-04T00:23:58;94829.19;;;2.85;81.68
6423;BME280;3244;42.708;23.288;2023-02-04T00:26:25;94823.28;;;2.93;80.54
6423;BME280;3244;42.708;23.288;2023-02-04T00:28:52;94819.94;;;2.93;80.65
6423;BME280;3244;42.708;23.288;2023-02-04T00:31:19;94811.63;;;2.86;81.20
6423;BME280;3244;42.708;23.288;2023-02-04T00:33:45;94809.09;;;2.89;80.89
6423;BME280;3244;42.708;23.288;2023-02-04T00:36:13;94801.63;;;2.79;80.87
6423;BME280;3244;42.708;23.288;2023-02-04T00:38:40;94814.16;;;2.82;80.67
6423;BME280;3244;42.708;23.288;2023-02-04T00:41:07;94809.16;;;2.76;79.79
6423;BME280;3244;42.708;23.288;2023-02-04T00:43:33;94808.28;;;2.83;79.89
6423;BME280;3244;42.708;23.288;2023-02-04T00:46:00;94818.22;;;2.96;79.73
6423;BME280;3244;42.708;23.288;2023-02-04T00:48:27;94802.25;;;3.05;79.07
6423;BME280;3244;42.708;23.288;2023-02-04T00:50:54;94808.84;;;3.15;78.60
6423;BME280;3244;42.708;23.288;2023-02-04T00:53:22;94809.66;;;3.19;78.44
6423;BME280;3244;42.708;23.288;2023-02-04T00:55:49;94795.44;;;3.19;78.96
6423;BME280;3244;42.708;23.288;2023-02-04T00:58:15;94787.09;;;3.14;78.58
6423;BME280;3244;42.708;23.288;2023-02-04T01:00:42;94776.25;;;3.12;78.88
6423;BME280;3244;42.708;23.288;2023-02-04T01:03:09;94793.81;;;3.12;78.83
6423;BME280;3244;42.708;23.288;2023-02-04T01:05:36;94770.38;;;3.13;78.67
6423;BME280;3244;42.708;23.288;2023-02-04T01:08:03;94766.91;;;3.23;77.77
6423;BME280;3244;42.708;23.288;2023-02-04T01:10:31;94771.88;;;3.29;77.27
6423;BME280;3244;42.708;23.288;2023-02-04T01:12:58;94768.50;;;3.33;77.05
6423;BME280;3244;42.708;23.288;2023-02-04T01:15:25;94765.06;;;3.40;75.96
6423;BME280;3244;42.708;23.288;2023-02-04T01:17:52;94755.88;;;3.38;75.81
6423;BME280;3244;42.708;23.288;2023-02-04T01:20:18;94746.69;;;3.35;75.72
6423;BME280;3244;42.708;23.288;2023-02-04T01:22:45;94750.91;;;3.32;76.16
6423;BME280;3244;42.708;23.288;2023-02-04T01:25:12;94744.22;;;3.31;76.38
6423;BME280;3244;42.708;23.288;2023-02-04T01:27:40;94736.66;;;3.35;76.29
6423;BME280;3244;42.708;23.288;2023-02-04T01:30:08;94730.75;;;3.39;75.26
6423;BME280;3244;42.708;23.288;2023-02-04T01:32:35;94730.81;;;3.33;76.15
6423;BME280;3244;42.708;23.288;2023-02-04T01:35:02;94718.16;;;3.42;75.03
6423;BME280;3244;42.708;23.288;2023-02-04T01:37:29;94715.56;;;3.47;73.71
6423;BME280;3244;42.708;23.288;2023-02-04T01:39:55;94717.00;;;3.69;73.20
6423;BME280;3244;42.708;23.288;2023-02-04T01:42:22;94717.53;;;3.91;72.00
6423;BME280;3244;42.708;23.288;2023-02-04T01:44:50;94722.44;;;4.00;69.60
6423;BME280;3244;42.708;23.288;2023-02-04T01:47:18;94717.31;;;4.06;71.90
6423;BME280;3244;42.708;23.288;2023-02-04T01:49:49;94714.75;;;4.11;72.00
6423;BME280;3244;42.708;23.288;2023-02-04T01:52:17;94713.97;;;4.07;72.62
6423;BME280;3244;42.708;23.288;2023-02-04T01:54:44;94713.13;;;4.07;72.75
6423;BME280;3244;42.708;23.288;2023-02-04T01:57:14;94712.22;;;4.13;72.90
6423;BME280;3244;42.708;23.288;2023-02-04T01:59:42;94693.88;;;4.04;72.67
6423;BME280;3244;42.708;23.288;2023-02-04T02:02:37;94699.22;;;3.83;73.41
6423;BME280;3244;42.708;23.288;2023-02-04T02:05:05;94705.09;;;3.81;74.33
6423;BME280;3244;42.708;23.288;2023-02-04T02:07:33;94707.78;;;3.70;74.29
6423;BME280;3244;42.708;23.288;2023-02-04T02:09:59;94698.41;;;3.81;74.52
6423;BME280;3244;42.708;23.288;2023-02-04T02:12:27;94690.22;;;3.68;74.42
6423;BME280;3244;42.708;23.288;2023-02-04T02:14:53;94678.59;;;3.58;74.90
6423;BME280;3244;42.708;23.288;2023-02-04T02:17:20;94693.78;;;3.49;75.60
6423;BME280;3244;42.708;23.288;2023-02-04T02:19:48;94689.69;;;3.44;76.12
6423;BME280;3244;42.708;23.288;2023-02-04T02:22:19;94683.84;;;3.43;75.72
6423;BME280;3244;42.708;23.288;2023-02-04T02:24:48;94683.72;;;3.49;75.61
6423;BME280;3244;42.708;23.288;2023-02-04T02:27:15;94669.47;;;3.53;75.66
6423;BME280;3244;42.708;23.288;2023-02-04T02:29:42;94656.84;;;3.57;74.00
6423;BME280;3244;42.708;23.288;2023-02-04T02:32:10;94653.56;;;3.52;75.12
6423;BME280;3244;42.708;23.288;2023-02-04T02:34:38;94651.78;;;3.60;75.11
6423;BME280;3244;42.708;23.288;2023-02-04T02:37:06;94635.88;;;3.60;74.66
6423;BME280;3244;42.708;23.288;2023-02-04T02:39:35;94625.81;;;3.60;75.44
6423;BME280;3244;42.708;23.288;2023-02-04T02:42:04;94628.25;;;3.66;74.47
6423;BME280;3244;42.708;23.288;2023-02-04T02:44:31;94615.72;;;3.64;74.72
6423;BME280;3244;42.708;23.288;2023-02-04T02:46:59;94620.22;;;3.41;75.40
6423;BME280;3244;42.708;23.288;2023-02-04T02:49:30;94621.94;;;3.37;75.65
6423;BME280;3244;42.708;23.288;2023-02-04T02:51:58;94607.78;;;3.30;75.48
6423;BME280;3244;42.708;23.288;2023-02-04T02:54:27;94602.53;;;3.49;74.77
6423;BME280;3244;42.708;23.288;2023-02-04T02:56:55;94607.59;;;3.46;74.96
6423;BME280;3244;42.708;23.288;2023-02-04T02:59:24;94592.44;;;3.52;74.64
6423;BME280;3244;42.708;23.288;2023-02-04T03:01:53;94603.28;;;3.54;74.48
6423;BME280;3244;42.708;23.288;2023-02-04T03:04:22;94606.63;;;3.54;74.79
6423;BME280;3244;42.708;23.288;2023-02-04T03:06:50;94599.00;;;3.62;73.95
6423;BME280;3244;42.708;23.288;2023-02-04T03:09:17;94599.78;;;3.67;73.53
6423;BME280;3244;42.708;23.288;2023-02-04T03:11:44;94606.69;;;3.50;74.73
6423;BME280;3244;42.708;23.288;2023-02-04T03:14:11;94615.69;;;3.66;74.54
6423;BME280;3244;42.708;23.288;2023-02-04T03:16:39;94613.88;;;3.74;73.98
6423;BME280;3244;42.708;23.288;2023-02-04T03:19:06;94615.59;;;3.72;73.88
6423;BME280;3244;42.708;23.288;2023-02-04T03:21:34;94592.94;;;3.75;73.98
6423;BME280;3244;42.708;23.288;2023-02-04T03:24:02;94591.47;;;3.60;74.66
6423;BME280;3244;42.708;23.288;2023-02-04T03:26:29;94590.06;;;3.42;75.30
6423;BME280;3244;42.708;23.288;2023-02-04T03:28:56;94600.09;;;3.44;75.22
6423;BME280;3244;42.708;23.288;2023-02-04T03:31:24;94599.06;;;3.56;75.58
6423;BME280;3244;42.708;23.288;2023-02-04T03:33:52;94605.84;;;3.51;75.32
6423;BME280;3244;42.708;23.288;2023-02-04T03:36:19;94597.34;;;3.61;75.60
6423;BME280;3244;42.708;23.288;2023-02-04T03:38:46;94593.09;;;3.66;74.83
6423;BME280;3244;42.708;23.288;2023-02-04T03:41:12;94586.47;;;3.60;75.49
6423;BME280;3244;42.708;23.288;2023-02-04T03:43:39;94588.28;;;3.48;75.52
6423;BME280;3244;42.708;23.288;2023-02-04T03:46:06;94574.88;;;3.49;75.83
6423;BME280;3244;42.708;23.288;2023-02-04T03:48:32;94575.66;;;3.54;75.82
6423;BME280;3244;42.708;23.288;2023-02-04T03:51:00;94577.59;;;3.36;75.88
6423;BME280;3244;42.708;23.288;2023-02-04T03:53:27;94577.59;;;3.35;76.69
6423;BME280;3244;42.708;23.288;2023-02-04T03:55:54;94571.44;;;3.56;75.80
6423;BME280;3244;42.708;23.288;2023-02-04T03:58:22;94565.59;;;3.54;75.56
6423;BME280;3244;42.708;23.288;2023-02-04T04:00:49;94567.28;;;3.55;75.63
6423;BME280;3244;42.708;23.288;2023-02-04T04:03:16;94568.03;;;3.60;76.10
6423;BME280;3244;42.708;23.288;2023-02-04T04:05:42;94560.59;;;3.52;75.62
6423;BME280;3244;42.708;23.288;2023-02-04T04:08:10;94553.97;;;3.47;76.20
6423;BME280;3244;42.708;23.288;2023-02-04T04:10:37;94544.94;;;3.36;76.16
6423;BME280;3244;42.708;23.288;2023-02-04T04:13:04;94542.34;;;3.42;76.98
6423;BME280;3244;42.708;23.288;2023-02-04T04:15:30;94537.09;;;3.58;76.28
6423;BME280;3244;42.708;23.288;2023-02-04T04:17:57;94528.56;;;3.68;76.42
6423;BME280;3244;42.708;23.288;2023-02-04T04:20:24;94530.25;;;3.66;76.07
6423;BME280;3244;42.708;23.288;2023-02-04T04:22:52;94530.22;;;3.69;76.64
6423;BME280;3244;42.708;23.288;2023-02-04T04:25:20;94540.03;;;3.84;75.79
6423;BME280;3244;42.708;23.288;2023-02-04T04:27:47;94535.81;;;3.85;75.79
6423;BME280;3244;42.708;23.288;2023-02-04T04:30:14;94539.25;;;3.79;76.23
6423;BME280;3244;42.708;23.288;2023-02-04T04:32:41;94545.97;;;3.79;76.74
6423;BME280;3244;42.708;23.288;2023-02-04T04:35:08;94553.41;;;3.86;76.12
6423;BME280;3244;42.708;23.288;2023-02-04T04:37:34;94554.97;;;3.93;76.27
6423;BME280;3244;42.708;23.288;2023-02-04T04:40:01;94544.78;;;3.99;75.79
6423;BME280;3244;42.708;23.288;2023-02-04T04:42:29;94550.63;;;4.00;76.05
6423;BME280;3244;42.708;23.288;2023-02-04T04:44:56;94555.44;;;4.15;76.04
6423;BME280;3244;42.708;23.288;2023-02-04T04:47:23;94554.69;;;4.08;76.25
6423;BME280;3244;42.708;23.288;2023-02-04T04:49:50;94557.19;;;4.10;76.59
6423;BME280;3244;42.708;23.288;2023-02-04T04:52:16;94553.00;;;4.10;76.27
6423;BME280;3244;42.708;23.288;2023-02-04T04:54:43;94556.22;;;4.19;75.51
6423;BME280;3244;42.708;23.288;2023-02-04T04:57:10;94563.53;;;4.31;74.59
6423;BME280;3244;42.708;23.288;2023-02-04T04:59:38;94553.88;;;4.54;73.54
6423;BME280;3244;42.708;23.288;2023-02-04T05:02:04;94550.22;;;4.70;73.48
6423;BME280;3244;42.708;23.288;2023-02-04T05:04:31;94573.38;;;4.88;73.33
6423;BME280;3244;42.708;23.288;2023-02-04T05:06:58;94553.13;;;4.94;73.83
6423;BME280;3244;42.708;23.288;2023-02-04T05:09:25;94552.88;;;5.06;74.56
6423;BME280;3244;42.708;23.288;2023-02-04T05:11:51;94557.84;;;5.09;74.71
6423;BME280;3244;42.708;23.288;2023-02-04T05:14:18;94577.03;;;5.15;74.92
6423;BME280;3244;42.708;23.288;2023-02-04T05:16:46;94585.22;;;5.24;74.64
6423;BME280;3244;42.708;23.288;2023-02-04T05:19:13;94585.34;;;5.20;74.58
6423;BME280;3244;42.708;23.288;2023-02-04T05:21:39;94589.72;;;5.10;74.70
6423;BME280;3244;42.708;23.288;2023-02-04T05:24:06;94586.47;;;5.05;75.00
6423;BME280;3244;42.708;23.288;2023-02-04T05:26:33;94596.22;;;5.20;74.80
6423;BME280;3244;42.708;23.288;2023-02-04T05:29:00;94602.22;;;5.15;74.67
6423;BME280;3244;42.708;23.288;2023-02-04T05:31:27;94613.00;;;5.21;73.90
6423;BME280;3244;42.708;23.288;2023-02-04T05:33:55;94613.00;;;5.21;73.69
6423;BME280;3244;42.708;23.288;2023-02-04T05:36:22;94615.72;;;5.12;73.45
6423;BME280;3244;42.708;23.288;2023-02-04T05:38:48;94611.66;;;5.05;74.26
6423;BME280;3244;42.708;23.288;2023-02-04T05:41:15;94614.91;;;5.10;73.07
6423;BME280;3244;42.708;23.288;2023-02-04T05:43:42;94608.97;;;5.14;73.79
6423;BME280;3244;42.708;23.288;2023-02-04T05:46:08;94614.09;;;5.08;73.54
6423;BME280;3244;42.708;23.288;2023-02-04T05:48:35;94613.38;;;5.01;72.63
6423;BME280;3244;42.708;23.288;2023-02-04T05:51:05;94602.53;;;4.98;72.54
6423;BME280;3244;42.708;23.288;2023-02-04T05:53:32;94596.91;;;4.87;72.47
6423;BME280;3244;42.708;23.288;2023-02-04T05:55:59;94596.97;;;4.82;73.01
6423;BME280;3244;42.708;23.288;2023-02-04T05:58:26;94583.69;;;4.75;73.81
6423;BME280;3244;42.708;23.288;2023-02-04T06:00:57;94581.38;;;4.65;73.81
6423;BME280;3244;42.708;23.288;2023-02-04T06:03:24;94590.63;;;4.64;73.69
6423;BME280;3244;42.708;23.288;2023-02-04T06:05:51;94590.63;;;4.64;73.89
6423;BME280;3244;42.708;23.288;2023-02-04T06:08:19;94594.75;;;4.68;73.17
6423;BME280;3244;42.708;23.288;2023-02-04T06:10:46;94591.75;;;4.93;72.15
6423;BME280;3244;42.708;23.288;2023-02-04T06:13:12;94603.75;;;5.22;70.52
6423;BME280;3244;42.708;23.288;2023-02-04T06:15:39;94614.09;;;5.50;69.63
6423;BME280;3244;42.708;23.288;2023-02-04T06:18:06;94616.41;;;5.97;67.58
6423;BME280;3244;42.708;23.288;2023-02-04T06:20:33;94603.63;;;6.05;67.44
6423;BME280;3244;42.708;23.288;2023-02-04T06:22:59;94610.53;;;5.97;67.33
6423;BME280;3244;42.708;23.288;2023-02-04T06:25:27;94595.69;;;5.85;67.71
6423;BME280;3244;42.708;23.288;2023-02-04T06:27:54;94614.84;;;5.93;67.86
6423;BME280;3244;42.708;23.288;2023-02-04T06:30:21;94611.03;;;5.74;67.85
6423;BME280;3244;42.708;23.288;2023-02-04T06:32:47;94622.53;;;5.87;67.89
6423;BME280;3244;42.708;23.288;2023-02-04T06:35:14;94633.28;;;5.95;67.80
6423;BME280;3244;42.708;23.288;2023-02-04T06:37:41;94629.69;;;6.05;67.11
6423;BME280;3244;42.708;23.288;2023-02-04T06:40:09;94628.88;;;6.05;67.34
6423;BME280;3244;42.708;23.288;2023-02-04T06:42:38;94633.19;;;6.35;65.66
6423;BME280;3244;42.708;23.288;2023-02-04T06:45:06;94632.88;;;6.47;66.14
6423;BME280;3244;42.708;23.288;2023-02-04T06:47:33;94634.81;;;6.70;65.01
6423;BME280;3244;42.708;23.288;2023-02-04T06:49:59;94632.63;;;7.22;63.65
6423;BME280;3244;42.708;23.288;2023-02-04T06:52:26;94622.78;;;7.99;61.97
6423;BME280;3244;42.708;23.288;2023-02-04T06:54:53;94616.31;;;10.10;57.10
6423;BME280;3244;42.708;23.288;2023-02-04T06:57:19;94612.84;;;11.54;50.97
6423;BME280;3244;42.708;23.288;2023-02-04T06:59:47;94605.75;;;13.21;48.36
6423;BME280;3244;42.708;23.288;2023-02-04T07:02:14;94596.13;;;14.68;43.16
6423;BME280;3244;42.708;23.288;2023-02-04T07:04:41;94586.94;;;16.07;40.00
6423;BME280;3244;42.708;23.288;2023-02-04T07:07:09;94573.25;;;17.13;37.98
6423;BME280;3244;42.708;23.288;2023-02-04T07:09:35;94572.19;;;17.79;36.00
6423;BME280;3244;42.708;23.288;2023-02-04T07:12:05;94572.75;;;17.95;34.58
6423;BME280;3244;42.708;23.288;2023-02-04T07:14:31;94569.31;;;17.45;35.25
6423;BME280;3244;42.708;23.288;2023-02-04T07:16:59;94579.19;;;17.13;35.75
6423;BME280;3244;42.708;23.288;2023-02-04T07:19:26;94573.16;;;16.22;36.59
6423;BME280;3244;42.708;23.288;2023-02-04T07:21:53;94573.97;;;15.11;39.22
6423;BME280;3244;42.708;23.288;2023-02-04T07:24:21;94570.59;;;14.52;39.98
6423;BME280;3244;42.708;23.288;2023-02-04T07:26:48;94569.75;;;13.90;42.24
6423;BME280;3244;42.708;23.288;2023-02-04T07:29:15;94562.16;;;13.25;44.00
6423;BME280;3244;42.708;23.288;2023-02-04T07:31:43;94553.84;;;12.87;44.93
6423;BME280;3244;42.708;23.288;2023-02-04T07:34:11;94558.63;;;13.28;43.60
6423;BME280;3244;42.708;23.288;2023-02-04T07:36:38;94573.69;;;13.33;42.87
6423;BME280;3244;42.708;23.288;2023-02-04T07:39:05;94559.81;;;13.21;43.23
6423;BME280;3244;42.708;23.288;2023-02-04T07:41:32;94564.88;;;13.38;43.33
6423;BME280;3244;42.708;23.288;2023-02-04T07:43:59;94554.41;;;14.21;41.15
6423;BME280;3244;42.708;23.288;2023-02-04T07:46:26;94551.59;;;15.14;39.66
6423;BME280;3244;42.708;23.288;2023-02-04T07:48:52;94554.28;;;16.63;37.66
6423;BME280;3244;42.708;23.288;2023-02-04T07:51:21;94548.44;;;17.62;34.89
6423;BME280;3244;42.708;23.288;2023-02-04T07:53:47;94552.66;;;17.63;34.85
6423;BME280;3244;42.708;23.288;2023-02-04T07:56:14;94552.94;;;16.57;35.41
6423;BME280;3244;42.708;23.288;2023-02-04T07:58:41;94561.69;;;14.73;38.68
6423;BME280;3244;42.708;23.288;2023-02-04T08:01:07;94567.88;;;12.96;43.51
6423;BME280;3244;42.708;23.288;2023-02-04T08:03:34;94568.66;;;11.93;45.10
6423;BME280;3244;42.708;23.288;2023-02-04T08:06:01;94568.94;;;11.31;47.13
6423;BME280;3244;42.708;23.288;2023-02-04T08:08:29;94568.63;;;10.99;48.06
6423;BME280;3244;42.708;23.288;2023-02-04T08:10:56;94559.06;;;10.45;49.12
6423;BME280;3244;42.708;23.288;2023-02-04T08:13:22;94573.50;;;10.01;50.78
6423;BME280;3244;42.708;23.288;2023-02-04T08:15:49;94575.63;;;9.68;51.93
6423;BME280;3244;42.708;23.288;2023-02-04T08:18:16;94573.78;;;9.49;52.49
6423;BME280;3244;42.708;23.288;2023-02-04T08:20:43;94578.44;;;9.15;53.08
6423;BME280;3244;42.708;23.288;2023-02-04T08:23:10;94580.56;;;9.02;54.20
6423;BME280;3244;42.708;23.288;2023-02-04T08:25:38;94582.50;;;8.71;55.19
6423;BME280;3244;42.708;23.288;2023-02-04T08:28:04;94576.09;;;8.61;55.43
6423;BME280;3244;42.708;23.288;2023-02-04T08:30:31;94572.66;;;8.63;56.03
6423;BME280;3244;42.708;23.288;2023-02-04T08:32:58;94565.88;;;8.64;55.66
6423;BME280;3244;42.708;23.288;2023-02-04T08:35:25;94570.75;;;8.68;56.57
6423;BME280;3244;42.708;23.288;2023-02-04T08:37:52;94566.38;;;8.73;56.32
6423;BME280;3244;42.708;23.288;2023-02-04T08:40:18;94562.66;;;8.59;56.71
6423;BME280;3244;42.708;23.288;2023-02-04T08:42:46;94573.94;;;8.50;57.29
6423;BME280;3244;42.708;23.288;2023-02-04T08:45:13;94575.16;;;8.38;57.39
6423;BME280;3244;42.708;23.288;2023-02-04T08:47:40;94565.31;;;8.29;57.11
6423;BME280;3244;42.708;23.288;2023-02-04T08:50:09;94574.09;;;8.17;58.38
6423;BME280;3244;42.708;23.288;2023-02-04T08:52:35;94570.66;;;8.20;59.05
6423;BME280;3244;42.708;23.288;2023-02-04T08:55:03;94568.66;;;8.30;58.85
6423;BME280;3244;42.708;23.288;2023-02-04T08:57:29;94566.56;;;8.42;59.04
6423;BME280;3244;42.708;23.288;2023-02-04T08:59:58;94556.09;;;8.53;59.96
6423;BME280;3244;42.708;23.288;2023-02-04T09:02:24;94563.28;;;8.65;59.65
6423;BME280;3244;42.708;23.288;2023-02-04T09:04:51;94556.53;;;8.66;59.00
6423;BME280;3244;42.708;23.288;2023-02-04T09:07:18;94552.94;;;8.71;58.66
6423;BME280;3244;42.708;23.288;2023-02-04T09:09:45;94559.22;;;8.61;59.47
6423;BME280;3244;42.708;23.288;2023-02-04T09:12:12;94554.91;;;8.63;59.31
6423;BME280;3244;42.708;23.288;2023-02-04T09:14:38;94548.84;;;8.67;59.21
6423;BME280;3244;42.708;23.288;2023-02-04T09:17:06;94543.38;;;8.79;58.62
6423;BME280;3244;42.708;23.288;2023-02-04T09:19:33;94545.81;;;8.82;58.01
6423;BME280;3244;42.708;23.288;2023-02-04T09:22:00;94544.16;;;8.81;57.03
6423;BME280;3244;42.708;23.288;2023-02-04T09:24:27;94549.88;;;8.86;56.89
6423;BME280;3244;42.708;23.288;2023-02-04T09:26:53;94544.75;;;8.88;56.30
6423;BME280;3244;42.708;23.288;2023-02-04T09:29:20;94552.81;;;8.74;56.48
6423;BME280;3244;42.708;23.288;2023-02-04T09:31:47;94555.56;;;8.68;55.95
6423;BME280;3244;42.708;23.288;2023-02-04T09:34:15;94561.50;;;8.67;58.05
6423;BME280;3244;42.708;23.288;2023-02-04T09:36:41;94553.41;;;8.58;59.19
6423;BME280;3244;42.708;23.288;2023-02-04T09:39:08;94546.84;;;8.52;59.65
6423;BME280;3244;42.708;23.288;2023-02-04T09:41:36;94550.25;;;8.51;60.51
6423;BME280;3244;42.708;23.288;2023-02-04T09:44:09;94549.44;;;8.50;60.99
6423;BME280;3244;42.708;23.288;2023-02-04T09:46:45;94539.53;;;8.43;61.85
6423;BME280;3244;42.708;23.288;2023-02-04T09:49:12;94535.44;;;8.14;62.66
6423;BME280;3244;42.708;23.288;2023-02-04T09:51:41;94540.31;;;8.18;63.08
6423;BME280;3244;42.708;23.288;2023-02-04T09:54:12;94537.69;;;8.22;63.08
6423;BME280;3244;42.708;23.288;2023-02-04T09:56:39;94540.22;;;8.22;64.30
6423;BME280;3244;42.708;23.288;2023-02-04T09:59:10;94528.53;;;8.44;63.50
6423;BME280;3244;42.708;23.288;2023-02-04T10:01:38;94531.84;;;8.46;62.60
6423;BME280;3244;42.708;23.288;2023-02-04T10:04:07;94529.38;;;8.44;63.49
6423;BME280;3244;42.708;23.288;2023-02-04T10:06:35;94518.41;;;8.44;63.48
6423;BME280;3244;42.708;23.288;2023-02-04T10:09:04;94511.69;;;8.43;62.79
6423;BME280;3244;42.708;23.288;2023-02-04T10:11:33;94512.13;;;8.56;63.01
6423;BME280;3244;42.708;23.288;2023-02-04T10:14:02;94513.16;;;8.50;61.88
6423;BME280;3244;42.708;23.288;2023-02-04T10:16:30;94505.56;;;8.50;61.68
6423;BME280;3244;42.708;23.288;2023-02-04T10:18:58;94504.25;;;8.13;62.99
6423;BME280;3244;42.708;23.288;2023-02-04T10:21:27;94505.78;;;8.17;62.50
6423;BME280;3244;42.708;23.288;2023-02-04T10:23:56;94495.44;;;8.24;63.38
6423;BME280;3244;42.708;23.288;2023-02-04T10:26:25;94499.41;;;8.32;63.29
6423;BME280;3244;42.708;23.288;2023-02-04T10:28:59;94494.97;;;8.39;64.04
6423;BME280;3244;42.708;23.288;2023-02-04T10:31:28;94499.16;;;8.40;64.00
6423;BME280;3244;42.708;23.288;2023-02-04T10:34:08;94487.94;;;8.47;64.19
6423;BME280;3244;42.708;23.288;2023-02-04T10:36:35;94493.78;;;8.49;63.95
6423;BME280;3244;42.708;23.288;2023-02-04T10:39:03;94497.97;;;8.50;64.47
6423;BME280;3244;42.708;23.288;2023-02-04T10:41:32;94490.63;;;8.42;64.69
6423;BME280;3244;42.708;23.288;2023-02-04T10:44:06;94494.34;;;8.57;65.18
6423;BME280;3244;42.708;23.288;2023-02-04T10:46:34;94502.72;;;8.59;65.00
6423;BME280;3244;42.708;23.288;2023-02-04T10:49:03;94493.00;;;8.47;65.76
6423;BME280;3244;42.708;23.288;2023-02-04T10:51:30;94489.19;;;8.35;66.96
6423;BME280;3244;42.708;23.288;2023-02-04T10:53:57;94484.84;;;8.39;67.33
6423;BME280;3244;42.708;23.288;2023-02-04T10:56:43;94483.63;;;8.49;66.73
6423;BME280;3244;42.708;23.288;2023-02-04T10:59:20;94481.22;;;8.46;66.75
6423;BME280;3244;42.708;23.288;2023-02-04T11:01:48;94480.63;;;8.39;67.17
6423;BME280;3244;42.708;23.288;2023-02-04T11:04:14;94477.53;;;8.30;67.21
6423;BME280;3244;42.708;23.288;2023-02-04T11:06:41;94469.94;;;8.30;67.42
6423;BME280;3244;42.708;23.288;2023-02-04T11:09:11;94467.56;;;8.50;66.09
6423;BME280;3244;42.708;23.288;2023-02-04T11:11:45;94460.84;;;8.49;66.62
6423;BME280;3244;42.708;23.288;2023-02-04T11:14:24;94436.56;;;8.43;66.54
6423;BME280;3244;42.708;23.288;2023-02-04T11:16:53;94453.25;;;8.72;66.40
6423;BME280;3244;42.708;23.288;2023-02-04T11:19:33;94455.88;;;8.93;65.11
6423;BME280;3244;42.708;23.288;2023-02-04T11:22:17;94452.03;;;9.06;64.19
6423;BME280;3244;42.708;23.288;2023-02-04T11:24:46;94459.16;;;9.18;63.83
6423;BME280;3244;42.708;23.288;2023-02-04T11:27:21;94449.22;;;9.13;63.62
6423;BME280;3244;42.708;23.288;2023-02-04T11:29:48;94459.44;;;8.89;64.94
6423;BME280;3244;42.708;23.288;2023-02-04T11:32:32;94444.13;;;8.68;65.53
6423;BME280;3244;42.708;23.288;2023-02-04T11:35:20;94451.84;;;8.65;65.56
6423;BME280;3244;42.708;23.288;2023-02-04T11:37:47;94450.63;;;8.52;64.99
6423;BME280;3244;42.708;23.288;2023-02-04T11:40:29;94451.34;;;8.56;66.32
6423;BME280;3244;42.708;23.288;2023-02-04T11:43:00;94454.47;;;8.39;65.80
6423;BME280;3244;42.708;23.288;2023-02-04T11:45:30;94456.13;;;8.40;66.94
6423;BME280;3244;42.708;23.288;2023-02-04T11:47:59;94445.88;;;8.43;66.30
6423;BME280;3244;42.708;23.288;2023-02-04T11:50:28;94455.69;;;8.52;66.23
6423;BME280;3244;42.708;23.288;2023-02-04T11:52:56;94450.00;;;8.69;64.90
6423;BME280;3244;42.708;23.288;2023-02-04T11:55:24;94456.50;;;8.76;65.17
6423;BME280;3244;42.708;23.288;2023-02-04T11:57:53;94447.09;;;8.79;65.69
6423;BME280;3244;42.708;23.288;2023-02-04T12:00:22;94458.53;;;8.66;66.46
6423;BME280;3244;42.708;23.288;2023-02-04T12:02:54;94451.84;;;8.65;66.07
6423;BME280;3244;42.708;23.288;2023-02-04T12:05:34;94449.31;;;8.65;67.22
6423;BME280;3244;42.708;23.288;2023-02-04T12:08:10;94455.13;;;8.67;67.34
6423;BME280;3244;42.708;23.288;2023-02-04T12:10:37;94458.06;;;8.57;67.03
6423;BME280;3244;42.708;23.288;2023-02-04T12:13:12;94450.41;;;8.58;66.98
6423;BME280;3244;42.708;23.288;2023-02-04T12:15:40;94446.91;;;8.62;67.53
6423;BME280;3244;42.708;23.288;2023-02-04T12:18:09;94442.81;;;8.58;67.51
6423;BME280;3244;42.708;23.288;2023-02-04T12:20:37;94448.91;;;8.52;68.69
6423;BME280;3244;42.708;23.288;2023-02-04T12:23:04;94457.88;;;8.38;68.04
6423;BME280;3244;42.708;23.288;2023-02-04T12:25:33;94444.94;;;8.20;68.75
6423;BME280;3244;42.708;23.288;2023-02-04T12:27:59;94450.50;;;8.30;68.52
6423;BME280;3244;42.708;23.288;2023-02-04T12:30:26;94436.97;;;8.31;68.51
6423;BME280;3244;42.708;23.288;2023-02-04T12:32:55;94441.56;;;8.20;68.51
6423;BME280;3244;42.708;23.288;2023-02-04T12:35:21;94431.50;;;8.18;68.52
6423;BME280;3244;42.708;23.288;2023-02-04T12:37:48;94445.84;;;8.18;69.89
6423;BME280;3244;42.708;23.288;2023-02-04T12:40:16;94437.34;;;8.20;69.76
6423;BME280;3244;42.708;23.288;2023-02-04T12:42:44;94443.19;;;8.23;68.92
6423;BME280;3244;42.708;23.288;2023-02-04T12:45:12;94433.78;;;8.26;67.81
6423;BME280;3244;42.708;23.288;2023-02-04T12:47:39;94433.44;;;8.37;67.57
6423;BME280;3244;42.708;23.288;2023-02-04T12:50:09;94423.31;;;8.37;66.91
6423;BME280;3244;42.708;23.288;2023-02-04T12:52:36;94434.22;;;8.39;67.59
6423;BME280;3244;42.708;23.288;2023-02-04T12:55:04;94428.72;;;8.51;66.58
6423;BME280;3244;42.708;23.288;2023-02-04T12:57:31;94437.19;;;8.50;66.59
6423;BME280;3244;42.708;23.288;2023-02-04T12:59:59;94428.19;;;8.41;67.25
6423;BME280;3244;42.708;23.288;2023-02-04T13:02:26;94434.44;;;8.33;66.77
6423;BME280;3244;42.708;23.288;2023-02-04T13:04:53;94433.94;;;8.22;67.82
6423;BME280;3244;42.708;23.288;2023-02-04T13:07:22;94440.31;;;8.08;67.22
6423;BME280;3244;42.708;23.288;2023-02-04T13:09:48;94442.44;;;7.94;67.08
6423;BME280;3244;42.708;23.288;2023-02-04T13:12:15;94430.47;;;7.74;67.37
6423;BME280;3244;42.708;23.288;2023-02-04T13:14:42;94443.38;;;7.67;68.32
6423;BME280;3244;42.708;23.288;2023-02-04T13:17:09;94441.59;;;7.69;66.40
6423;BME280;3244;42.708;23.288;2023-02-04T13:19:36;94430.84;;;7.64;65.78
6423;BME280;3244;42.708;23.288;2023-02-04T13:22:03;94435.72;;;7.68;65.95
6423;BME280;3244;42.708;23.288;2023-02-04T13:24:31;94443.44;;;7.65;65.92